sensor_id;sensor_type;location;lat;lon;timestamp;P1;durP1;ratioP1;P2;durP2;ratioP2
31596;SDS011;74162;50.912;6.918;2023-12-07T00:13:52;67.38;;;53.78;;
31596;SDS011;74162;50.912;6.918;2023-12-07T00:20:48;67.20;;;48.97;;
31596;SDS011;74162;50.912;6.918;2023-12-07T00:38:00;60.45;;;48.80;;
31596;SDS011;74162;50.912;6.918;2023-12-07T00:41:03;61.80;;;46.20;;
31596;SDS011;74162;50.912;6.918;2023-12-07T00:44:29;59.58;;;45.13;;
31596;SDS011;74162;50.912;6.918;2023-12-07T00:46:11;60.00;;;46.50;;
31596;SDS011;74162;50.912;6.918;2023-12-07T00:47:04;61.40;;;47.20;;
31596;SDS011;74162;50.912;6.918;2023-12-07T00:50:40;62.20;;;50.45;;
31596;SDS011;74162;50.912;6.918;2023-12-07T00:51:12;64.10;;;52.03;;
31596;SDS011;74162;50.912;6.918;2023-12-07T01:05:25;80.57;;;57.20;;
31596;SDS011;74162;50.912;6.918;2023-12-07T01:08:55;78.63;;;56.15;;
31596;SDS011;74162;50.912;6.918;2023-12-07T01:10:31;80.88;;;61.20;;
31596;SDS011;74162;50.912;6.918;2023-12-07T01:14:39;80.13;;;61.17;;
31596;SDS011;74162;50.912;6.918;2023-12-07T01:16:43;72.22;;;57.00;;
31596;SDS011;74162;50.912;6.918;2023-12-07T01:50:13;63.58;;;43.72;;
31596;SDS011;74162;50.912;6.918;2023-12-07T01:50:58;67.38;;;51.50;;
31596;SDS011;74162;50.912;6.918;2023-12-07T01:51:35;70.43;;;52.55;;
31596;SDS011;74162;50.912;6.918;2023-12-07T01:52:41;76.40;;;57.38;;
31596;SDS011;74162;50.912;6.918;2023-12-07T01:53:35;66.63;;;50.33;;
31596;SDS011;74162;50.912;6.918;2023-12-07T01:55:42;66.72;;;50.85;;
31596;SDS011;74162;50.912;6.918;2023-12-07T01:58:23;67.03;;;51.78;;
31596;SDS011;74162;50.912;6.918;2023-12-07T02:01:37;65.55;;;52.20;;
31596;SDS011;74162;50.912;6.918;2023-12-07T02:04:55;81.63;;;57.72;;
31596;SDS011;74162;50.912;6.918;2023-12-07T02:06:01;69.28;;;52.78;;
31596;SDS011;74162;50.912;6.918;2023-12-07T02:09:13;67.97;;;50.80;;
31596;SDS011;74162;50.912;6.918;2023-12-07T02:10:32;67.65;;;49.88;;
31596;SDS011;74162;50.912;6.918;2023-12-07T02:12:51;68.80;;;50.17;;
31596;SDS011;74162;50.912;6.918;2023-12-07T02:14:21;69.22;;;50.92;;
31596;SDS011;74162;50.912;6.918;2023-12-07T02:30:05;70.43;;;51.35;;
31596;SDS011;74162;50.912;6.918;2023-12-07T02:31:00;67.68;;;48.38;;
31596;SDS011;74162;50.912;6.918;2023-12-07T02:31:41;67.53;;;50.25;;
31596;SDS011;74162;50.912;6.918;2023-12-07T02:36:01;68.70;;;50.75;;
31596;SDS011;74162;50.912;6.918;2023-12-07T02:36:44;63.97;;;49.10;;
31596;SDS011;74162;50.912;6.918;2023-12-07T02:37:51;69.15;;;49.15;;
31596;SDS011;74162;50.912;6.918;2023-12-07T02:39:07;64.60;;;52.00;;
31596;SDS011;74162;50.912;6.918;2023-12-07T02:40:57;60.97;;;50.33;;
31596;SDS011;74162;50.912;6.918;2023-12-07T02:41:56;64.60;;;53.65;;
31596;SDS011;74162;50.912;6.918;2023-12-07T02:43:14;69.90;;;54.35;;
31596;SDS011;74162;50.912;6.918;2023-12-07T02:44:22;67.35;;;52.70;;
31596;SDS011;74162;50.912;6.918;2023-12-07T02:45:24;68.20;;;54.15;;
31596;SDS011;74162;50.912;6.918;2023-12-07T02:46:14;69.90;;;54.22;;
31596;SDS011;74162;50.912;6.918;2023-12-07T02:47:10;66.57;;;53.10;;
31596;SDS011;74162;50.912;6.918;2023-12-07T02:48:08;68.55;;;51.15;;
31596;SDS011;74162;50.912;6.918;2023-12-07T02:49:06;68.65;;;50.38;;
31596;SDS011;74162;50.912;6.918;2023-12-07T02:49:40;66.75;;;49.20;;
31596;SDS011;74162;50.912;6.918;2023-12-07T02:50:32;66.60;;;49.25;;
31596;SDS011;74162;50.912;6.918;2023-12-07T02:51:12;64.22;;;48.25;;
31596;SDS011;74162;50.912;6.918;2023-12-07T02:52:32;70.95;;;50.80;;
31596;SDS011;74162;50.912;6.918;2023-12-07T02:53:05;66.30;;;49.65;;
31596;SDS011;74162;50.912;6.918;2023-12-07T02:54:19;70.18;;;50.35;;
31596;SDS011;74162;50.912;6.918;2023-12-07T02:54:41;62.00;;;48.88;;
31596;SDS011;74162;50.912;6.918;2023-12-07T02:55:50;64.35;;;48.28;;
31596;SDS011;74162;50.912;6.918;2023-12-07T02:56:51;62.13;;;47.97;;
31596;SDS011;74162;50.912;6.918;2023-12-07T02:57:42;67.97;;;50.90;;
31596;SDS011;74162;50.912;6.918;2023-12-07T02:58:15;70.60;;;50.88;;
31596;SDS011;74162;50.912;6.918;2023-12-07T02:59:12;70.03;;;52.20;;
31596;SDS011;74162;50.912;6.918;2023-12-07T03:00:11;68.28;;;53.45;;
31596;SDS011;74162;50.912;6.918;2023-12-07T03:01:10;68.57;;;54.53;;
31596;SDS011;74162;50.912;6.918;2023-12-07T03:02:40;69.95;;;55.58;;
31596;SDS011;74162;50.912;6.918;2023-12-07T03:11:42;64.10;;;48.47;;
31596;SDS011;74162;50.912;6.918;2023-12-07T03:15:23;70.35;;;50.72;;
31596;SDS011;74162;50.912;6.918;2023-12-07T03:24:52;70.05;;;54.03;;
31596;SDS011;74162;50.912;6.918;2023-12-07T03:25:31;66.80;;;51.60;;
31596;SDS011;74162;50.912;6.918;2023-12-07T03:26:15;63.15;;;50.33;;
31596;SDS011;74162;50.912;6.918;2023-12-07T03:27:02;59.60;;;48.30;;
31596;SDS011;74162;50.912;6.918;2023-12-07T03:27:59;66.20;;;49.03;;
31596;SDS011;74162;50.912;6.918;2023-12-07T03:28:33;63.30;;;47.75;;
31596;SDS011;74162;50.912;6.918;2023-12-07T03:29:16;66.25;;;47.70;;
31596;SDS011;74162;50.912;6.918;2023-12-07T03:30:21;67.30;;;48.63;;
31596;SDS011;74162;50.912;6.918;2023-12-07T03:33:10;65.10;;;48.05;;
31596;SDS011;74162;50.912;6.918;2023-12-07T03:35:15;64.40;;;48.20;;
31596;SDS011;74162;50.912;6.918;2023-12-07T03:35:59;59.03;;;46.83;;
31596;SDS011;74162;50.912;6.918;2023-12-07T03:36:38;67.65;;;48.50;;
31596;SDS011;74162;50.912;6.918;2023-12-07T03:37:41;69.70;;;50.50;;
31596;SDS011;74162;50.912;6.918;2023-12-07T03:38:15;69.97;;;50.80;;
31596;SDS011;74162;50.912;6.918;2023-12-07T03:39:03;66.32;;;48.42;;
31596;SDS011;74162;50.912;6.918;2023-12-07T03:40:01;58.55;;;48.00;;
31596;SDS011;74162;50.912;6.918;2023-12-07T03:42:15;57.97;;;47.33;;
31596;SDS011;74162;50.912;6.918;2023-12-07T03:43:08;56.00;;;45.50;;
31596;SDS011;74162;50.912;6.918;2023-12-07T03:43:55;52.03;;;42.55;;
31596;SDS011;74162;50.912;6.918;2023-12-07T03:44:57;55.03;;;44.50;;
31596;SDS011;74162;50.912;6.918;2023-12-07T03:49:10;64.40;;;49.42;;
31596;SDS011;74162;50.912;6.918;2023-12-07T03:49:56;61.00;;;47.35;;
31596;SDS011;74162;50.912;6.918;2023-12-07T03:50:38;63.78;;;46.03;;
31596;SDS011;74162;50.912;6.918;2023-12-07T03:51:49;65.25;;;46.92;;
31596;SDS011;74162;50.912;6.918;2023-12-07T03:52:51;60.88;;;45.45;;
31596;SDS011;74162;50.912;6.918;2023-12-07T03:53:46;57.42;;;44.03;;
31596;SDS011;74162;50.912;6.918;2023-12-07T03:54:40;58.70;;;45.15;;
31596;SDS011;74162;50.912;6.918;2023-12-07T03:55:26;55.50;;;43.65;;
31596;SDS011;74162;50.912;6.918;2023-12-07T03:56:35;54.05;;;44.05;;
31596;SDS011;74162;50.912;6.918;2023-12-07T03:57:18;56.00;;;43.67;;
31596;SDS011;74162;50.912;6.918;2023-12-07T03:57:54;55.17;;;42.95;;
31596;SDS011;74162;50.912;6.918;2023-12-07T03:58:50;54.90;;;43.33;;
31596;SDS011;74162;50.912;6.918;2023-12-07T03:59:40;52.83;;;43.63;;
31596;SDS011;74162;50.912;6.918;2023-12-07T04:00:39;51.47;;;42.22;;
31596;SDS011;74162;50.912;6.918;2023-12-07T04:01:33;53.92;;;42.85;;
31596;SDS011;74162;50.912;6.918;2023-12-07T04:02:57;54.47;;;42.22;;
31596;SDS011;74162;50.912;6.918;2023-12-07T04:03:37;49.90;;;42.25;;
31596;SDS011;74162;50.912;6.918;2023-12-07T04:04:32;55.17;;;46.45;;
31596;SDS011;74162;50.912;6.918;2023-12-07T04:05:09;53.17;;;45.72;;
31596;SDS011;74162;50.912;6.918;2023-12-07T04:05:44;65.00;;;49.47;;
31596;SDS011;74162;50.912;6.918;2023-12-07T04:06:21;56.75;;;47.38;;
31596;SDS011;74162;50.912;6.918;2023-12-07T04:07:00;56.70;;;47.83;;
31596;SDS011;74162;50.912;6.918;2023-12-07T04:07:35;57.40;;;47.97;;
31596;SDS011;74162;50.912;6.918;2023-12-07T04:08:12;60.85;;;49.00;;
31596;SDS011;74162;50.912;6.918;2023-12-07T04:10:11;52.13;;;43.35;;
31596;SDS011;74162;50.912;6.918;2023-12-07T04:12:50;56.97;;;44.85;;
31596;SDS011;74162;50.912;6.918;2023-12-07T04:13:31;55.92;;;43.08;;
31596;SDS011;74162;50.912;6.918;2023-12-07T04:14:07;62.53;;;45.55;;
31596;SDS011;74162;50.912;6.918;2023-12-07T04:14:49;55.10;;;43.45;;
31596;SDS011;74162;50.912;6.918;2023-12-07T04:15:34;54.40;;;43.53;;
31596;SDS011;74162;50.912;6.918;2023-12-07T04:16:27;60.00;;;45.90;;
31596;SDS011;74162;50.912;6.918;2023-12-07T04:17:02;61.28;;;46.70;;
31596;SDS011;74162;50.912;6.918;2023-12-07T04:17:39;54.13;;;43.25;;
31596;SDS011;74162;50.912;6.918;2023-12-07T04:18:18;56.60;;;44.60;;
31596;SDS011;74162;50.912;6.918;2023-12-07T04:18:58;57.92;;;44.88;;
31596;SDS011;74162;50.912;6.918;2023-12-07T04:19:36;55.40;;;44.80;;
31596;SDS011;74162;50.912;6.918;2023-12-07T04:20:17;56.35;;;44.58;;
31596;SDS011;74162;50.912;6.918;2023-12-07T04:21:06;58.60;;;45.30;;
31596;SDS011;74162;50.912;6.918;2023-12-07T04:23:21;59.45;;;45.15;;
31596;SDS011;74162;50.912;6.918;2023-12-07T04:24:18;61.00;;;46.15;;
31596;SDS011;74162;50.912;6.918;2023-12-07T04:24:52;56.55;;;44.08;;
31596;SDS011;74162;50.912;6.918;2023-12-07T04:25:39;56.60;;;45.60;;
31596;SDS011;74162;50.912;6.918;2023-12-07T04:27:24;61.00;;;48.70;;
31596;SDS011;74162;50.912;6.918;2023-12-07T04:27:59;59.85;;;49.05;;
31596;SDS011;74162;50.912;6.918;2023-12-07T04:28:34;63.67;;;49.85;;
31596;SDS011;74162;50.912;6.918;2023-12-07T04:29:08;58.78;;;48.95;;
31596;SDS011;74162;50.912;6.918;2023-12-07T04:29:42;55.13;;;47.20;;
31596;SDS011;74162;50.912;6.918;2023-12-07T04:30:16;59.83;;;47.88;;
31596;SDS011;74162;50.912;6.918;2023-12-07T04:30:56;68.85;;;52.50;;
31596;SDS011;74162;50.912;6.918;2023-12-07T04:31:30;80.97;;;55.28;;
31596;SDS011;74162;50.912;6.918;2023-12-07T04:32:24;56.83;;;46.17;;
31596;SDS011;74162;50.912;6.918;2023-12-07T04:32:58;57.58;;;47.33;;
31596;SDS011;74162;50.912;6.918;2023-12-07T04:33:32;57.67;;;45.58;;
31596;SDS011;74162;50.912;6.918;2023-12-07T04:34:04;57.53;;;44.88;;
31596;SDS011;74162;50.912;6.918;2023-12-07T04:34:38;59.95;;;47.47;;
31596;SDS011;74162;50.912;6.918;2023-12-07T04:35:16;63.90;;;46.63;;
31596;SDS011;74162;50.912;6.918;2023-12-07T04:35:50;61.55;;;46.63;;
31596;SDS011;74162;50.912;6.918;2023-12-07T04:36:26;64.03;;;45.83;;
31596;SDS011;74162;50.912;6.918;2023-12-07T04:37:01;66.55;;;45.63;;
31596;SDS011;74162;50.912;6.918;2023-12-07T04:37:40;59.58;;;45.78;;
31596;SDS011;74162;50.912;6.918;2023-12-07T04:38:13;58.88;;;45.90;;
31596;SDS011;74162;50.912;6.918;2023-12-07T04:38:51;58.70;;;44.85;;
31596;SDS011;74162;50.912;6.918;2023-12-07T04:39:43;56.10;;;42.17;;
31596;SDS011;74162;50.912;6.918;2023-12-07T04:40:23;55.90;;;43.75;;
31596;SDS011;74162;50.912;6.918;2023-12-07T04:41:13;60.75;;;44.42;;
31596;SDS011;74162;50.912;6.918;2023-12-07T04:46:33;51.90;;;41.88;;
31596;SDS011;74162;50.912;6.918;2023-12-07T04:48:21;50.13;;;42.53;;
31596;SDS011;74162;50.912;6.918;2023-12-07T04:49:02;50.15;;;41.25;;
31596;SDS011;74162;50.912;6.918;2023-12-07T04:49:35;56.67;;;44.92;;
31596;SDS011;74162;50.912;6.918;2023-12-07T04:50:11;62.63;;;47.63;;
31596;SDS011;74162;50.912;6.918;2023-12-07T04:50:45;54.80;;;45.50;;
31596;SDS011;74162;50.912;6.918;2023-12-07T04:51:19;62.55;;;48.67;;
31596;SDS011;74162;50.912;6.918;2023-12-07T04:51:56;58.17;;;47.65;;
31596;SDS011;74162;50.912;6.918;2023-12-07T04:52:42;56.33;;;45.28;;
31596;SDS011;74162;50.912;6.918;2023-12-07T04:53:14;64.32;;;47.25;;
31596;SDS011;74162;50.912;6.918;2023-12-07T04:54:08;54.85;;;43.17;;
31596;SDS011;74162;50.912;6.918;2023-12-07T04:58:39;53.08;;;41.13;;
31596;SDS011;74162;50.912;6.918;2023-12-07T05:00:05;55.65;;;42.53;;
31596;SDS011;74162;50.912;6.918;2023-12-07T05:00:48;53.72;;;43.10;;
31596;SDS011;74162;50.912;6.918;2023-12-07T05:01:27;55.45;;;41.75;;
31596;SDS011;74162;50.912;6.918;2023-12-07T05:02:03;54.13;;;41.38;;
31596;SDS011;74162;50.912;6.918;2023-12-07T05:02:46;55.13;;;42.97;;
31596;SDS011;74162;50.912;6.918;2023-12-07T05:03:31;51.75;;;41.20;;
31596;SDS011;74162;50.912;6.918;2023-12-07T05:04:19;52.92;;;40.92;;
31596;SDS011;74162;50.912;6.918;2023-12-07T05:05:00;53.65;;;41.90;;
31596;SDS011;74162;50.912;6.918;2023-12-07T05:05:57;54.38;;;41.63;;
31596;SDS011;74162;50.912;6.918;2023-12-07T05:09:07;51.40;;;42.72;;
31596;SDS011;74162;50.912;6.918;2023-12-07T05:09:45;56.53;;;45.03;;
31596;SDS011;74162;50.912;6.918;2023-12-07T05:10:22;56.78;;;46.03;;
31596;SDS011;74162;50.912;6.918;2023-12-07T05:10:57;53.28;;;43.33;;
31596;SDS011;74162;50.912;6.918;2023-12-07T05:11:37;50.53;;;43.53;;
31596;SDS011;74162;50.912;6.918;2023-12-07T05:12:20;54.90;;;45.28;;
31596;SDS011;74162;50.912;6.918;2023-12-07T05:12:56;54.40;;;45.38;;
31596;SDS011;74162;50.912;6.918;2023-12-07T05:15:39;52.00;;;43.30;;
31596;SDS011;74162;50.912;6.918;2023-12-07T05:16:16;56.55;;;44.72;;
31596;SDS011;74162;50.912;6.918;2023-12-07T05:16:51;52.35;;;42.35;;
31596;SDS011;74162;50.912;6.918;2023-12-07T05:17:23;54.75;;;43.67;;
31596;SDS011;74162;50.912;6.918;2023-12-07T05:19:39;57.97;;;42.05;;
31596;SDS011;74162;50.912;6.918;2023-12-07T05:24:15;50.28;;;39.92;;
31596;SDS011;74162;50.912;6.918;2023-12-07T05:24:48;52.85;;;40.50;;
31596;SDS011;74162;50.912;6.918;2023-12-07T05:25:22;55.05;;;41.45;;
31596;SDS011;74162;50.912;6.918;2023-12-07T05:27:15;47.92;;;38.47;;
31596;SDS011;74162;50.912;6.918;2023-12-07T05:27:47;51.22;;;39.90;;
31596;SDS011;74162;50.912;6.918;2023-12-07T05:28:22;56.95;;;42.50;;
31596;SDS011;74162;50.912;6.918;2023-12-07T05:28:55;51.17;;;40.50;;
31596;SDS011;74162;50.912;6.918;2023-12-07T05:29:27;51.35;;;39.40;;
31596;SDS011;74162;50.912;6.918;2023-12-07T05:29:59;49.30;;;39.25;;
31596;SDS011;74162;50.912;6.918;2023-12-07T05:30:31;49.35;;;38.90;;
31596;SDS011;74162;50.912;6.918;2023-12-07T05:31:03;50.95;;;40.10;;
31596;SDS011;74162;50.912;6.918;2023-12-07T05:31:38;52.55;;;41.70;;
31596;SDS011;74162;50.912;6.918;2023-12-07T05:32:10;53.88;;;43.85;;
31596;SDS011;74162;50.912;6.918;2023-12-07T05:32:57;51.53;;;42.55;;
31596;SDS011;74162;50.912;6.918;2023-12-07T05:34:25;51.13;;;44.00;;
31596;SDS011;74162;50.912;6.918;2023-12-07T05:36:54;54.22;;;44.50;;
31596;SDS011;74162;50.912;6.918;2023-12-07T05:37:26;49.58;;;42.00;;
31596;SDS011;74162;50.912;6.918;2023-12-07T05:37:59;49.05;;;41.53;;
31596;SDS011;74162;50.912;6.918;2023-12-07T05:38:31;53.15;;;44.03;;
31596;SDS011;74162;50.912;6.918;2023-12-07T05:39:03;54.47;;;44.70;;
31596;SDS011;74162;50.912;6.918;2023-12-07T05:39:35;53.90;;;44.08;;
31596;SDS011;74162;50.912;6.918;2023-12-07T05:44:40;80.35;;;47.25;;
31596;SDS011;74162;50.912;6.918;2023-12-07T05:45:16;61.65;;;42.97;;
31596;SDS011;74162;50.912;6.918;2023-12-07T05:45:49;58.90;;;43.47;;
31596;SDS011;74162;50.912;6.918;2023-12-07T05:50:20;60.10;;;43.65;;
31596;SDS011;74162;50.912;6.918;2023-12-07T05:50:53;60.67;;;45.15;;
31596;SDS011;74162;50.912;6.918;2023-12-07T05:51:56;57.60;;;45.28;;
31596;SDS011;74162;50.912;6.918;2023-12-07T05:52:30;57.90;;;43.85;;
31596;SDS011;74162;50.912;6.918;2023-12-07T05:53:05;56.90;;;44.75;;
31596;SDS011;74162;50.912;6.918;2023-12-07T05:54:30;60.90;;;47.33;;
31596;SDS011;74162;50.912;6.918;2023-12-07T05:55:08;62.65;;;46.15;;
31596;SDS011;74162;50.912;6.918;2023-12-07T05:55:43;56.75;;;44.30;;
31596;SDS011;74162;50.912;6.918;2023-12-07T05:59:39;50.28;;;42.00;;
31596;SDS011;74162;50.912;6.918;2023-12-07T06:07:38;56.45;;;43.20;;
31596;SDS011;74162;50.912;6.918;2023-12-07T06:10:04;54.70;;;42.13;;
31596;SDS011;74162;50.912;6.918;2023-12-07T06:10:45;57.97;;;42.65;;
31596;SDS011;74162;50.912;6.918;2023-12-07T06:11:26;53.03;;;41.83;;
31596;SDS011;74162;50.912;6.918;2023-12-07T06:12:08;56.22;;;42.13;;
31596;SDS011;74162;50.912;6.918;2023-12-07T06:12:41;55.65;;;41.67;;
31596;SDS011;74162;50.912;6.918;2023-12-07T06:16:50;61.92;;;47.03;;
31596;SDS011;74162;50.912;6.918;2023-12-07T06:20:25;64.95;;;49.13;;
31596;SDS011;74162;50.912;6.918;2023-12-07T06:21:09;66.53;;;50.35;;
31596;SDS011;74162;50.912;6.918;2023-12-07T06:21:45;61.80;;;50.20;;
31596;SDS011;74162;50.912;6.918;2023-12-07T06:22:26;66.43;;;52.38;;
31596;SDS011;74162;50.912;6.918;2023-12-07T06:23:00;74.05;;;57.17;;
31596;SDS011;74162;50.912;6.918;2023-12-07T06:23:42;71.22;;;56.08;;
31596;SDS011;74162;50.912;6.918;2023-12-07T06:26:24;60.95;;;50.55;;
31596;SDS011;74162;50.912;6.918;2023-12-07T06:27:05;56.33;;;49.38;;
31596;SDS011;74162;50.912;6.918;2023-12-07T06:31:33;64.38;;;48.92;;
31596;SDS011;74162;50.912;6.918;2023-12-07T06:33:09;62.90;;;45.90;;
31596;SDS011;74162;50.912;6.918;2023-12-07T06:40:40;64.30;;;46.80;;
31596;SDS011;74162;50.912;6.918;2023-12-07T06:44:48;58.83;;;45.38;;
31596;SDS011;74162;50.912;6.918;2023-12-07T06:45:20;59.80;;;44.75;;
31596;SDS011;74162;50.912;6.918;2023-12-07T06:52:18;57.17;;;44.30;;
31596;SDS011;74162;50.912;6.918;2023-12-07T06:52:50;57.45;;;42.97;;
31596;SDS011;74162;50.912;6.918;2023-12-07T06:53:36;63.67;;;46.28;;
31596;SDS011;74162;50.912;6.918;2023-12-07T06:54:11;62.13;;;44.30;;
31596;SDS011;74162;50.912;6.918;2023-12-07T06:54:47;61.53;;;44.15;;
31596;SDS011;74162;50.912;6.918;2023-12-07T07:02:45;56.13;;;43.90;;
31596;SDS011;74162;50.912;6.918;2023-12-07T07:03:21;52.88;;;42.72;;
31596;SDS011;74162;50.912;6.918;2023-12-07T07:03:53;59.97;;;47.10;;
31596;SDS011;74162;50.912;6.918;2023-12-07T07:15:46;51.17;;;40.67;;
31596;SDS011;74162;50.912;6.918;2023-12-07T07:16:29;52.65;;;40.90;;
31596;SDS011;74162;50.912;6.918;2023-12-07T07:17:27;54.70;;;41.42;;
31596;SDS011;74162;50.912;6.918;2023-12-07T07:20:04;52.00;;;39.75;;
31596;SDS011;74162;50.912;6.918;2023-12-07T07:20:41;51.80;;;40.08;;
31596;SDS011;74162;50.912;6.918;2023-12-07T07:23:38;56.72;;;39.75;;
31596;SDS011;74162;50.912;6.918;2023-12-07T07:24:31;50.90;;;38.70;;
31596;SDS011;74162;50.912;6.918;2023-12-07T07:25:46;51.15;;;40.33;;
31596;SDS011;74162;50.912;6.918;2023-12-07T07:26:21;49.22;;;38.33;;
31596;SDS011;74162;50.912;6.918;2023-12-07T07:26:57;55.00;;;41.75;;
31596;SDS011;74162;50.912;6.918;2023-12-07T07:27:29;55.83;;;42.63;;
31596;SDS011;74162;50.912;6.918;2023-12-07T07:28:01;53.47;;;41.45;;
31596;SDS011;74162;50.912;6.918;2023-12-07T07:28:34;52.10;;;39.47;;
31596;SDS011;74162;50.912;6.918;2023-12-07T07:29:06;50.13;;;41.10;;
31596;SDS011;74162;50.912;6.918;2023-12-07T07:29:41;55.42;;;42.67;;
31596;SDS011;74162;50.912;6.918;2023-12-07T07:30:13;52.10;;;40.92;;
31596;SDS011;74162;50.912;6.918;2023-12-07T07:30:46;52.20;;;40.97;;
31596;SDS011;74162;50.912;6.918;2023-12-07T07:31:19;57.63;;;42.80;;
31596;SDS011;74162;50.912;6.918;2023-12-07T07:31:52;56.13;;;42.63;;
31596;SDS011;74162;50.912;6.918;2023-12-07T07:32:25;52.97;;;40.22;;
31596;SDS011;74162;50.912;6.918;2023-12-07T07:32:57;53.30;;;41.00;;
31596;SDS011;74162;50.912;6.918;2023-12-07T07:33:29;54.97;;;41.60;;
31596;SDS011;74162;50.912;6.918;2023-12-07T07:34:04;60.47;;;43.42;;
31596;SDS011;74162;50.912;6.918;2023-12-07T07:34:37;54.72;;;42.05;;
31596;SDS011;74162;50.912;6.918;2023-12-07T07:35:11;58.22;;;41.70;;
31596;SDS011;74162;50.912;6.918;2023-12-07T07:35:45;53.13;;;42.22;;
31596;SDS011;74162;50.912;6.918;2023-12-07T07:36:23;54.72;;;41.22;;
31596;SDS011;74162;50.912;6.918;2023-12-07T07:36:55;53.03;;;41.25;;
31596;SDS011;74162;50.912;6.918;2023-12-07T07:37:45;53.38;;;40.40;;
31596;SDS011;74162;50.912;6.918;2023-12-07T07:39:35;49.65;;;38.17;;
31596;SDS011;74162;50.912;6.918;2023-12-07T07:41:43;50.40;;;40.25;;
31596;SDS011;74162;50.912;6.918;2023-12-07T07:43:12;52.97;;;40.95;;
31596;SDS011;74162;50.912;6.918;2023-12-07T07:43:49;53.67;;;39.90;;
31596;SDS011;74162;50.912;6.918;2023-12-07T07:44:24;53.72;;;41.15;;
31596;SDS011;74162;50.912;6.918;2023-12-07T07:44:56;55.50;;;42.28;;
31596;SDS011;74162;50.912;6.918;2023-12-07T07:45:39;50.22;;;40.38;;
31596;SDS011;74162;50.912;6.918;2023-12-07T07:46:27;53.60;;;40.80;;
31596;SDS011;74162;50.912;6.918;2023-12-07T07:47:07;52.22;;;41.35;;
31596;SDS011;74162;50.912;6.918;2023-12-07T07:47:39;47.92;;;38.70;;
31596;SDS011;74162;50.912;6.918;2023-12-07T07:48:14;57.28;;;42.38;;
31596;SDS011;74162;50.912;6.918;2023-12-07T07:54:59;52.05;;;40.80;;
31596;SDS011;74162;50.912;6.918;2023-12-07T07:55:50;53.45;;;39.90;;
31596;SDS011;74162;50.912;6.918;2023-12-07T07:56:23;51.15;;;39.60;;
31596;SDS011;74162;50.912;6.918;2023-12-07T07:57:09;52.83;;;39.75;;
31596;SDS011;74162;50.912;6.918;2023-12-07T07:57:48;49.78;;;40.17;;
31596;SDS011;74162;50.912;6.918;2023-12-07T08:00:41;51.08;;;38.20;;
31596;SDS011;74162;50.912;6.918;2023-12-07T08:01:13;54.53;;;38.22;;
31596;SDS011;74162;50.912;6.918;2023-12-07T08:01:47;54.88;;;37.63;;
31596;SDS011;74162;50.912;6.918;2023-12-07T08:02:19;55.25;;;39.85;;
31596;SDS011;74162;50.912;6.918;2023-12-07T08:02:52;54.70;;;38.13;;
31596;SDS011;74162;50.912;6.918;2023-12-07T08:03:26;50.83;;;37.80;;
31596;SDS011;74162;50.912;6.918;2023-12-07T08:04:04;54.17;;;38.20;;
31596;SDS011;74162;50.912;6.918;2023-12-07T08:04:36;54.40;;;39.28;;
31596;SDS011;74162;50.912;6.918;2023-12-07T08:05:08;54.30;;;38.65;;
31596;SDS011;74162;50.912;6.918;2023-12-07T08:05:42;55.92;;;39.30;;
31596;SDS011;74162;50.912;6.918;2023-12-07T08:06:14;56.60;;;39.15;;
31596;SDS011;74162;50.912;6.918;2023-12-07T08:06:46;50.08;;;37.80;;
31596;SDS011;74162;50.912;6.918;2023-12-07T08:07:21;54.22;;;39.28;;
31596;SDS011;74162;50.912;6.918;2023-12-07T08:07:56;53.45;;;38.42;;
31596;SDS011;74162;50.912;6.918;2023-12-07T08:08:30;58.30;;;40.33;;
31596;SDS011;74162;50.912;6.918;2023-12-07T08:09:08;53.92;;;38.75;;
31596;SDS011;74162;50.912;6.918;2023-12-07T08:10:29;53.03;;;38.63;;
31596;SDS011;74162;50.912;6.918;2023-12-07T08:11:05;55.28;;;38.53;;
31596;SDS011;74162;50.912;6.918;2023-12-07T08:12:42;54.53;;;42.47;;
31596;SDS011;74162;50.912;6.918;2023-12-07T08:13:33;51.90;;;42.63;;
31596;SDS011;74162;50.912;6.918;2023-12-07T08:19:24;55.97;;;45.65;;
31596;SDS011;74162;50.912;6.918;2023-12-07T08:20:21;52.42;;;42.40;;
31596;SDS011;74162;50.912;6.918;2023-12-07T08:21:18;56.58;;;42.08;;
31596;SDS011;74162;50.912;6.918;2023-12-07T08:21:57;57.03;;;43.40;;
31596;SDS011;74162;50.912;6.918;2023-12-07T08:22:49;55.05;;;42.08;;
31596;SDS011;74162;50.912;6.918;2023-12-07T08:23:58;57.42;;;42.90;;
31596;SDS011;74162;50.912;6.918;2023-12-07T08:25:14;60.95;;;44.33;;
31596;SDS011;74162;50.912;6.918;2023-12-07T08:25:53;57.95;;;43.35;;
31596;SDS011;74162;50.912;6.918;2023-12-07T08:26:25;58.33;;;43.25;;
31596;SDS011;74162;50.912;6.918;2023-12-07T08:30:24;60.00;;;44.92;;
31596;SDS011;74162;50.912;6.918;2023-12-07T08:31:11;60.45;;;43.97;;
31596;SDS011;74162;50.912;6.918;2023-12-07T08:32:23;62.40;;;46.60;;
31596;SDS011;74162;50.912;6.918;2023-12-07T08:32:58;60.63;;;46.83;;
31596;SDS011;74162;50.912;6.918;2023-12-07T08:35:40;65.80;;;48.55;;
31596;SDS011;74162;50.912;6.918;2023-12-07T08:37:13;65.57;;;49.15;;
31596;SDS011;74162;50.912;6.918;2023-12-07T08:38:36;62.78;;;48.40;;
31596;SDS011;74162;50.912;6.918;2023-12-07T08:39:08;59.60;;;46.88;;
31596;SDS011;74162;50.912;6.918;2023-12-07T08:39:40;60.80;;;46.28;;
31596;SDS011;74162;50.912;6.918;2023-12-07T08:40:12;66.35;;;47.38;;
31596;SDS011;74162;50.912;6.918;2023-12-07T08:40:44;56.78;;;43.47;;
31596;SDS011;74162;50.912;6.918;2023-12-07T08:41:16;60.95;;;45.63;;
31596;SDS011;74162;50.912;6.918;2023-12-07T08:41:47;57.25;;;44.85;;
31596;SDS011;74162;50.912;6.918;2023-12-07T08:44:14;53.60;;;44.05;;
31596;SDS011;74162;50.912;6.918;2023-12-07T08:46:15;50.55;;;42.47;;
31596;SDS011;74162;50.912;6.918;2023-12-07T08:47:07;50.38;;;41.38;;
31596;SDS011;74162;50.912;6.918;2023-12-07T08:47:39;53.22;;;42.65;;
31596;SDS011;74162;50.912;6.918;2023-12-07T08:48:11;53.70;;;43.53;;
31596;SDS011;74162;50.912;6.918;2023-12-07T08:50:15;53.10;;;39.78;;
31596;SDS011;74162;50.912;6.918;2023-12-07T08:50:47;55.17;;;39.88;;
31596;SDS011;74162;50.912;6.918;2023-12-07T08:51:19;53.05;;;38.92;;
31596;SDS011;74162;50.912;6.918;2023-12-07T08:51:51;53.22;;;39.28;;
31596;SDS011;74162;50.912;6.918;2023-12-07T08:52:43;53.03;;;38.55;;
31596;SDS011;74162;50.912;6.918;2023-12-07T08:57:47;50.05;;;38.47;;
31596;SDS011;74162;50.912;6.918;2023-12-07T09:02:19;51.10;;;37.10;;
31596;SDS011;74162;50.912;6.918;2023-12-07T09:05:04;49.63;;;37.65;;
31596;SDS011;74162;50.912;6.918;2023-12-07T09:12:21;44.50;;;37.75;;
31596;SDS011;74162;50.912;6.918;2023-12-07T09:13:40;43.75;;;35.53;;
31596;SDS011;74162;50.912;6.918;2023-12-07T09:15:10;48.25;;;36.63;;
31596;SDS011;74162;50.912;6.918;2023-12-07T09:16:12;43.67;;;35.33;;
31596;SDS011;74162;50.912;6.918;2023-12-07T09:17:04;45.38;;;35.05;;
31596;SDS011;74162;50.912;6.918;2023-12-07T09:18:19;47.22;;;36.15;;
31596;SDS011;74162;50.912;6.918;2023-12-07T09:20:12;46.85;;;36.53;;
31596;SDS011;74162;50.912;6.918;2023-12-07T09:21:43;45.75;;;35.70;;
31596;SDS011;74162;50.912;6.918;2023-12-07T09:23:35;47.20;;;37.10;;
31596;SDS011;74162;50.912;6.918;2023-12-07T09:24:43;53.00;;;38.94;;
31596;SDS011;74162;50.912;6.918;2023-12-07T09:25:20;51.90;;;38.53;;